sensor_id;sensor_type;location;lat;lon;timestamp;pressure;altitude;pressure_sealevel;temperature;humidity
44127;BME280;29786;50.798;7.302;2023-07-22T00:00:27;99110;;;13.51;100
44127;BME280;29786;50.798;7.302;2023-07-22T00:01:25;99110;;;13.5;100
44127;BME280;29786;50.798;7.302;2023-07-22T00:02:25;99110;;;13.54;100
44127;BME280;29786;50.798;7.302;2023-07-22T00:03:25;99110;;;13.54;100
44127;BME280;29786;50.798;7.302;2023-07-22T00:04:25;99110;;;13.56;100
44127;BME280;29786;50.798;7.302;2023-07-22T00:05:25;99110;;;13.53;100
44127;BME280;29786;50.798;7.302;2023-07-22T00:06:25;99110;;;13.52;100
44127;BME280;29786;50.798;7.302;2023-07-22T00:07:25;99110;;;13.49;100
44127;BME280;29786;50.798;7.302;2023-07-22T00:08:26;99110;;;13.45;100
44127;BME280;29786;50.798;7.302;2023-07-22T00:09:25;99110;;;13.48;100
44127;BME280;29786;50.798;7.302;2023-07-22T00:10:25;99110;;;13.46;100
44127;BME280;29786;50.798;7.302;2023-07-22T00:11:25;99110;;;13.42;100
44127;BME280;29786;50.798;7.302;2023-07-22T00:12:23;99110;;;13.43;100
44127;BME280;29786;50.798;7.302;2023-07-22T00:13:26;99110;;;13.42;100
44127;BME280;29786;50.798;7.302;2023-07-22T00:14:25;99110;;;13.38;100
44127;BME280;29786;50.798;7.302;2023-07-22T00:15:28;99100;;;13.33;100
44127;BME280;29786;50.798;7.302;2023-07-22T00:16:26;99110;;;13.3;100
44127;BME280;29786;50.798;7.302;2023-07-22T00:17:25;99100;;;13.25;100
44127;BME280;29786;50.798;7.302;2023-07-22T00:18:25;99100;;;13.16;100
44127;BME280;29786;50.798;7.302;2023-07-22T00:19:25;99100;;;13.14;100
44127;BME280;29786;50.798;7.302;2023-07-22T00:20:25;99110;;;13.15;100
44127;BME280;29786;50.798;7.302;2023-07-22T00:21:25;99110;;;13.16;100
44127;BME280;29786;50.798;7.302;2023-07-22T00:22:25;99110;;;13.2;100
44127;BME280;29786;50.798;7.302;2023-07-22T00:23:26;99110;;;13.18;100
44127;BME280;29786;50.798;7.302;2023-07-22T00:24:25;99110;;;13.19;100
44127;BME280;29786;50.798;7.302;2023-07-22T00:25:25;99110;;;13.2;100
44127;BME280;29786;50.798;7.302;2023-07-22T00:26:26;99110;;;13.24;100
44127;BME280;29786;50.798;7.302;2023-07-22T00:27:25;99110;;;13.18;100
44127;BME280;29786;50.798;7.302;2023-07-22T00:28:25;99100;;;13.24;100
44127;BME280;29786;50.798;7.302;2023-07-22T00:29:25;99110;;;13.31;100
44127;BME280;29786;50.798;7.302;2023-07-22T00:30:25;99110;;;13.34;100
44127;BME280;29786;50.798;7.302;2023-07-22T00:31:26;99110;;;13.28;100
44127;BME280;29786;50.798;7.302;2023-07-22T00:32:25;99110;;;13.29;100
44127;BME280;29786;50.798;7.302;2023-07-22T00:33:25;99110;;;13.29;100
44127;BME280;29786;50.798;7.302;2023-07-22T00:34:25;99110;;;13.28;100
44127;BME280;29786;50.798;7.302;2023-07-22T00:35:25;99110;;;13.24;100
44127;BME280;29786;50.798;7.302;2023-07-22T00:36:25;99110;;;13.21;100
44127;BME280;29786;50.798;7.302;2023-07-22T00:37:25;99110;;;13.17;100
44127;BME280;29786;50.798;7.302;2023-07-22T00:38:24;99110;;;13.12;100
44127;BME280;29786;50.798;7.302;2023-07-22T00:39:25;99110;;;13.16;100
44127;BME280;29786;50.798;7.302;2023-07-22T00:40:25;99110;;;13.21;100
44127;BME280;29786;50.798;7.302;2023-07-22T00:41:25;99110;;;13.18;100
44127;BME280;29786;50.798;7.302;2023-07-22T00:42:25;99120;;;13.21;100
44127;BME280;29786;50.798;7.302;2023-07-22T00:43:25;99110;;;13.2;100
44127;BME280;29786;50.798;7.302;2023-07-22T00:44:25;99110;;;13.28;100
44127;BME280;29786;50.798;7.302;2023-07-22T00:45:26;99110;;;13.24;100
44127;BME280;29786;50.798;7.302;2023-07-22T00:46:25;99110;;;13.25;100
44127;BME280;29786;50.798;7.302;2023-07-22T00:47:25;99110;;;13.36;100
44127;BME280;29786;50.798;7.302;2023-07-22T00:48:26;99110;;;13.35;100
44127;BME280;29786;50.798;7.302;2023-07-22T00:49:25;99110;;;13.3;100
44127;BME280;29786;50.798;7.302;2023-07-22T00:50:25;99110;;;13.36;100
44127;BME280;29786;50.798;7.302;2023-07-22T00:51:25;99110;;;13.42;100
44127;BME280;29786;50.798;7.302;2023-07-22T00:52:26;99110;;;13.38;100
44127;BME280;29786;50.798;7.302;2023-07-22T00:53:26;99110;;;13.29;100
44127;BME280;29786;50.798;7.302;2023-07-22T00:54:26;99110;;;13.23;100
44127;BME280;29786;50.798;7.302;2023-07-22T00:55:25;99120;;;13.1;100
44127;BME280;29786;50.798;7.302;2023-07-22T00:56:25;99110;;;13.01;100
44127;BME280;29786;50.798;7.302;2023-07-22T00:57:26;99120;;;13.1;100
44127;BME280;29786;50.798;7.302;2023-07-22T00:58:25;99120;;;13.02;100
44127;BME280;29786;50.798;7.302;2023-07-22T00:59:26;99120;;;13.05;100
44127;BME280;29786;50.798;7.302;2023-07-22T01:00:26;99120;;;12.99;100
44127;BME280;29786;50.798;7.302;2023-07-22T01:01:25;99110;;;12.93;100
44127;BME280;29786;50.798;7.302;2023-07-22T01:02:25;99120;;;12.95;100
44127;BME280;29786;50.798;7.302;2023-07-22T01:03:25;99120;;;12.93;100
44127;BME280;29786;50.798;7.302;2023-07-22T01:04:25;99120;;;12.98;100
44127;BME280;29786;50.798;7.302;2023-07-22T01:05:25;99120;;;13;100
44127;BME280;29786;50.798;7.302;2023-07-22T01:06:25;99110;;;13;100
44127;BME280;29786;50.798;7.302;2023-07-22T01:07:25;99120;;;12.97;100
44127;BME280;29786;50.798;7.302;2023-07-22T01:08:26;99120;;;12.96;100
44127;BME280;29786;50.798;7.302;2023-07-22T01:09:26;99110;;;12.95;100
44127;BME280;29786;50.798;7.302;2023-07-22T01:10:26;99120;;;12.98;100
44127;BME280;29786;50.798;7.302;2023-07-22T01:11:25;99110;;;12.98;100
44127;BME280;29786;50.798;7.302;2023-07-22T01:12:26;99110;;;13;100
44127;BME280;29786;50.798;7.302;2023-07-22T01:13:26;99120;;;12.93;100
44127;BME280;29786;50.798;7.302;2023-07-22T01:14:26;99110;;;12.9;100
44127;BME280;29786;50.798;7.302;2023-07-22T01:15:26;99110;;;12.98;100
44127;BME280;29786;50.798;7.302;2023-07-22T01:16:27;99110;;;13.05;100
44127;BME280;29786;50.798;7.302;2023-07-22T01:17:25;99110;;;13.09;100
44127;BME280;29786;50.798;7.302;2023-07-22T01:18:25;99110;;;13.13;100
44127;BME280;29786;50.798;7.302;2023-07-22T01:19:25;99110;;;13.08;100
44127;BME280;29786;50.798;7.302;2023-07-22T01:20:25;99110;;;13.08;100
44127;BME280;29786;50.798;7.302;2023-07-22T01:21:25;99100;;;13.04;100
44127;BME280;29786;50.798;7.302;2023-07-22T01:22:25;99110;;;13.08;100
44127;BME280;29786;50.798;7.302;2023-07-22T01:23:25;99110;;;13.12;100
44127;BME280;29786;50.798;7.302;2023-07-22T01:24:25;99100;;;13.09;100
44127;BME280;29786;50.798;7.302;2023-07-22T01:25:25;99110;;;13.07;100
44127;BME280;29786;50.798;7.302;2023-07-22T01:26:25;99100;;;13.09;100
44127;BME280;29786;50.798;7.302;2023-07-22T01:27:25;99110;;;13.04;100
44127;BME280;29786;50.798;7.302;2023-07-22T01:28:25;99110;;;13.04;100
44127;BME280;29786;50.798;7.302;2023-07-22T01:29:25;99110;;;12.96;100
44127;BME280;29786;50.798;7.302;2023-07-22T01:30:25;99110;;;13.04;100
44127;BME280;29786;50.798;7.302;2023-07-22T01:31:25;99110;;;13.05;100
44127;BME280;29786;50.798;7.302;2023-07-22T01:32:26;99110;;;13;100
44127;BME280;29786;50.798;7.302;2023-07-22T01:33:25;99100;;;12.93;100
44127;BME280;29786;50.798;7.302;2023-07-22T01:34:25;99100;;;12.87;100
44127;BME280;29786;50.798;7.302;2023-07-22T01:35:25;99110;;;12.86;100
44127;BME280;29786;50.798;7.302;2023-07-22T01:36:26;99110;;;12.79;100
44127;BME280;29786;50.798;7.302;2023-07-22T01:37:25;99110;;;12.74;100
44127;BME280;29786;50.798;7.302;2023-07-22T01:38:26;99110;;;12.68;100
44127;BME280;29786;50.798;7.302;2023-07-22T01:39:25;99110;;;12.68;100
44127;BME280;29786;50.798;7.302;2023-07-22T01:40:25;99100;;;12.66;100
44127;BME280;29786;50.798;7.302;2023-07-22T01:41:26;99100;;;12.66;100
44127;BME280;29786;50.798;7.302;2023-07-22T01:42:25;99100;;;12.62;100
44127;BME280;29786;50.798;7.302;2023-07-22T01:43:26;99100;;;12.6;100
44127;BME280;29786;50.798;7.302;2023-07-22T01:44:25;99100;;;12.54;100
44127;BME280;29786;50.798;7.302;2023-07-22T01:45:26;99100;;;12.56;100
44127;BME280;29786;50.798;7.302;2023-07-22T01:46:25;99100;;;12.54;100
44127;BME280;29786;50.798;7.302;2023-07-22T01:47:25;99100;;;12.55;100
44127;BME280;29786;50.798;7.302;2023-07-22T01:48:25;99100;;;12.54;100
44127;BME280;29786;50.798;7.302;2023-07-22T01:49:26;99100;;;12.62;100
44127;BME280;29786;50.798;7.302;2023-07-22T01:50:25;99100;;;12.67;100
44127;BME280;29786;50.798;7.302;2023-07-22T01:51:25;99100;;;12.65;100
44127;BME280;29786;50.798;7.302;2023-07-22T01:52:25;99100;;;12.61;100
44127;BME280;29786;50.798;7.302;2023-07-22T01:53:25;99100;;;12.54;100
44127;BME280;29786;50.798;7.302;2023-07-22T01:54:26;99100;;;12.56;100
44127;BME280;29786;50.798;7.302;2023-07-22T01:55:25;99090;;;12.58;100
44127;BME280;29786;50.798;7.302;2023-07-22T01:56:26;99100;;;12.58;100
44127;BME280;29786;50.798;7.302;2023-07-22T01:57:25;99090;;;12.53;100
44127;BME280;29786;50.798;7.302;2023-07-22T01:58:25;99090;;;12.55;100
44127;BME280;29786;50.798;7.302;2023-07-22T01:59:25;99090;;;12.53;100
44127;BME280;29786;50.798;7.302;2023-07-22T02:00:25;99090;;;12.52;100
44127;BME280;29786;50.798;7.302;2023-07-22T02:01:25;99090;;;12.53;100
44127;BME280;29786;50.798;7.302;2023-07-22T02:02:25;99090;;;12.49;100
44127;BME280;29786;50.798;7.302;2023-07-22T02:03:25;99090;;;12.44;100
44127;BME280;29786;50.798;7.302;2023-07-22T02:04:26;99090;;;12.39;100
44127;BME280;29786;50.798;7.302;2023-07-22T02:05:25;99090;;;12.4;100
44127;BME280;29786;50.798;7.302;2023-07-22T02:06:25;99090;;;12.4;100
44127;BME280;29786;50.798;7.302;2023-07-22T02:07:25;99090;;;12.37;100
44127;BME280;29786;50.798;7.302;2023-07-22T02:08:25;99090;;;12.35;100
44127;BME280;29786;50.798;7.302;2023-07-22T02:09:25;99090;;;12.38;100
44127;BME280;29786;50.798;7.302;2023-07-22T02:10:26;99090;;;12.33;100
44127;BME280;29786;50.798;7.302;2023-07-22T02:11:25;99090;;;12.37;100
44127;BME280;29786;50.798;7.302;2023-07-22T02:12:26;99090;;;12.43;100
44127;BME280;29786;50.798;7.302;2023-07-22T02:13:25;99090;;;12.5;100
44127;BME280;29786;50.798;7.302;2023-07-22T02:14:25;99090;;;12.62;100
44127;BME280;29786;50.798;7.302;2023-07-22T02:15:26;99090;;;12.73;100
44127;BME280;29786;50.798;7.302;2023-07-22T02:16:25;99090;;;12.77;100
44127;BME280;29786;50.798;7.302;2023-07-22T02:17:25;99100;;;12.75;100
44127;BME280;29786;50.798;7.302;2023-07-22T02:18:26;99100;;;12.81;100
44127;BME280;29786;50.798;7.302;2023-07-22T02:19:26;99100;;;12.94;100
44127;BME280;29786;50.798;7.302;2023-07-22T02:20:25;99100;;;12.9;100
44127;BME280;29786;50.798;7.302;2023-07-22T02:21:25;99100;;;12.94;100
44127;BME280;29786;50.798;7.302;2023-07-22T02:22:26;99100;;;12.87;100
44127;BME280;29786;50.798;7.302;2023-07-22T02:23:25;99090;;;12.85;100
44127;BME280;29786;50.798;7.302;2023-07-22T02:24:26;99100;;;12.85;100
44127;BME280;29786;50.798;7.302;2023-07-22T02:25:25;99090;;;12.81;100
44127;BME280;29786;50.798;7.302;2023-07-22T02:26:25;99090;;;12.78;100
44127;BME280;29786;50.798;7.302;2023-07-22T02:27:26;99090;;;12.77;100
44127;BME280;29786;50.798;7.302;2023-07-22T02:28:25;99090;;;12.79;100
44127;BME280;29786;50.798;7.302;2023-07-22T02:29:25;99100;;;12.84;100
44127;BME280;29786;50.798;7.302;2023-07-22T02:30:25;99100;;;12.86;100
44127;BME280;29786;50.798;7.302;2023-07-22T02:31:25;99100;;;12.89;100
44127;BME280;29786;50.798;7.302;2023-07-22T02:32:25;99090;;;12.84;100
44127;BME280;29786;50.798;7.302;2023-07-22T02:33:25;99090;;;12.86;100
44127;BME280;29786;50.798;7.302;2023-07-22T02:34:25;99090;;;12.97;100
44127;BME280;29786;50.798;7.302;2023-07-22T02:35:25;99090;;;12.99;100
44127;BME280;29786;50.798;7.302;2023-07-22T02:36:26;99090;;;12.96;100
44127;BME280;29786;50.798;7.302;2023-07-22T02:37:25;99090;;;13;100
44127;BME280;29786;50.798;7.302;2023-07-22T02:38:25;99090;;;12.99;100
44127;BME280;29786;50.798;7.302;2023-07-22T02:39:25;99090;;;13.01;100
44127;BME280;29786;50.798;7.302;2023-07-22T02:40:25;99090;;;12.97;100
44127;BME280;29786;50.798;7.302;2023-07-22T02:41:25;99090;;;12.98;100
44127;BME280;29786;50.798;7.302;2023-07-22T02:42:25;99090;;;12.98;100
44127;BME280;29786;50.798;7.302;2023-07-22T02:44:25;99090;;;12.79;100
44127;BME280;29786;50.798;7.302;2023-07-22T02:45:26;99090;;;12.77;100
44127;BME280;29786;50.798;7.302;2023-07-22T02:46:26;99090;;;12.81;100
44127;BME280;29786;50.798;7.302;2023-07-22T02:47:26;99090;;;12.77;100
44127;BME280;29786;50.798;7.302;2023-07-22T02:48:25;99090;;;12.82;100
44127;BME280;29786;50.798;7.302;2023-07-22T02:49:25;99090;;;12.84;100
44127;BME280;29786;50.798;7.302;2023-07-22T02:50:25;99090;;;12.84;100
44127;BME280;29786;50.798;7.302;2023-07-22T02:51:25;99090;;;12.87;100
44127;BME280;29786;50.798;7.302;2023-07-22T02:52:26;99090;;;12.88;100
44127;BME280;29786;50.798;7.302;2023-07-22T02:53:24;99090;;;12.89;100
44127;BME280;29786;50.798;7.302;2023-07-22T02:54:25;99090;;;12.92;100
44127;BME280;29786;50.798;7.302;2023-07-22T02:55:26;99090;;;12.95;100
44127;BME280;29786;50.798;7.302;2023-07-22T02:56:25;99080;;;12.83;100
44127;BME280;29786;50.798;7.302;2023-07-22T02:57:25;99090;;;12.8;100
44127;BME280;29786;50.798;7.302;2023-07-22T02:58:25;99090;;;12.88;100
44127;BME280;29786;50.798;7.302;2023-07-22T02:59:25;99090;;;12.98;100
44127;BME280;29786;50.798;7.302;2023-07-22T03:00:25;99090;;;12.91;100
44127;BME280;29786;50.798;7.302;2023-07-22T03:01:25;99090;;;12.85;100
44127;BME280;29786;50.798;7.302;2023-07-22T03:02:25;99090;;;12.89;100
44127;BME280;29786;50.798;7.302;2023-07-22T03:03:25;99090;;;12.9;100
44127;BME280;29786;50.798;7.302;2023-07-22T03:04:25;99090;;;12.79;100
44127;BME280;29786;50.798;7.302;2023-07-22T03:05:26;99090;;;12.73;100
44127;BME280;29786;50.798;7.302;2023-07-22T03:06:25;99090;;;12.62;100
44127;BME280;29786;50.798;7.302;2023-07-22T03:07:25;99090;;;12.64;100
44127;BME280;29786;50.798;7.302;2023-07-22T03:08:25;99090;;;12.58;100
44127;BME280;29786;50.798;7.302;2023-07-22T03:09:26;99090;;;12.55;100
44127;BME280;29786;50.798;7.302;2023-07-22T03:10:25;99090;;;12.47;100
44127;BME280;29786;50.798;7.302;2023-07-22T03:11:27;99090;;;12.37;100
44127;BME280;29786;50.798;7.302;2023-07-22T03:12:26;99090;;;12.41;100
44127;BME280;29786;50.798;7.302;2023-07-22T03:13:25;99090;;;12.47;100
44127;BME280;29786;50.798;7.302;2023-07-22T03:14:25;99090;;;12.52;100
44127;BME280;29786;50.798;7.302;2023-07-22T03:15:24;99100;;;12.45;100
44127;BME280;29786;50.798;7.302;2023-07-22T03:16:25;99100;;;12.48;100
44127;BME280;29786;50.798;7.302;2023-07-22T03:17:25;99100;;;12.45;100
44127;BME280;29786;50.798;7.302;2023-07-22T03:18:25;99100;;;12.43;100
44127;BME280;29786;50.798;7.302;2023-07-22T03:19:25;99100;;;12.36;100
44127;BME280;29786;50.798;7.302;2023-07-22T03:20:25;99100;;;12.45;100
44127;BME280;29786;50.798;7.302;2023-07-22T03:21:25;99100;;;12.42;100
44127;BME280;29786;50.798;7.302;2023-07-22T03:22:25;99100;;;12.42;100
44127;BME280;29786;50.798;7.302;2023-07-22T03:23:25;99100;;;12.45;100
44127;BME280;29786;50.798;7.302;2023-07-22T03:24:25;99100;;;12.52;100
44127;BME280;29786;50.798;7.302;2023-07-22T03:25:25;99100;;;12.45;100
44127;BME280;29786;50.798;7.302;2023-07-22T03:26:25;99100;;;12.45;100
44127;BME280;29786;50.798;7.302;2023-07-22T03:27:26;99100;;;12.58;100
44127;BME280;29786;50.798;7.302;2023-07-22T03:28:25;99100;;;12.49;100
44127;BME280;29786;50.798;7.302;2023-07-22T03:29:25;99100;;;12.45;100
44127;BME280;29786;50.798;7.302;2023-07-22T03:30:26;99100;;;12.5;100
44127;BME280;29786;50.798;7.302;2023-07-22T03:31:26;99100;;;12.54;100
44127;BME280;29786;50.798;7.302;2023-07-22T03:32:25;99100;;;12.51;100
44127;BME280;29786;50.798;7.302;2023-07-22T03:33:25;99100;;;12.56;100
44127;BME280;29786;50.798;7.302;2023-07-22T03:34:26;99100;;;12.58;100
44127;BME280;29786;50.798;7.302;2023-07-22T03:35:25;99100;;;12.66;100
44127;BME280;29786;50.798;7.302;2023-07-22T03:36:25;99100;;;12.58;100
44127;BME280;29786;50.798;7.302;2023-07-22T03:37:25;99100;;;12.56;100
44127;BME280;29786;50.798;7.302;2023-07-22T03:38:25;99100;;;12.54;100
44127;BME280;29786;50.798;7.302;2023-07-22T03:39:25;99100;;;12.59;100
44127;BME280;29786;50.798;7.302;2023-07-22T03:40:25;99100;;;12.48;100
44127;BME280;29786;50.798;7.302;2023-07-22T03:41:25;99100;;;12.38;100
44127;BME280;29786;50.798;7.302;2023-07-22T03:42:26;99100;;;12.46;100
44127;BME280;29786;50.798;7.302;2023-07-22T03:43:26;99100;;;12.48;100
44127;BME280;29786;50.798;7.302;2023-07-22T03:44:25;99100;;;12.51;100
44127;BME280;29786;50.798;7.302;2023-07-22T03:45:25;99100;;;12.53;100
44127;BME280;29786;50.798;7.302;2023-07-22T03:46:25;99100;;;12.59;100
44127;BME280;29786;50.798;7.302;2023-07-22T03:47:25;99100;;;12.61;100
44127;BME280;29786;50.798;7.302;2023-07-22T03:48:25;99100;;;12.71;100
44127;BME280;29786;50.798;7.302;2023-07-22T03:49:25;99090;;;12.75;100
44127;BME280;29786;50.798;7.302;2023-07-22T03:50:26;99090;;;12.81;100
44127;BME280;29786;50.798;7.302;2023-07-22T03:51:25;99090;;;12.78;100
44127;BME280;29786;50.798;7.302;2023-07-22T03:52:25;99090;;;12.83;100
44127;BME280;29786;50.798;7.302;2023-07-22T03:53:25;99090;;;12.92;100
44127;BME280;29786;50.798;7.302;2023-07-22T03:54:25;99090;;;12.9;100
44127;BME280;29786;50.798;7.302;2023-07-22T03:55:25;99090;;;12.81;100
44127;BME280;29786;50.798;7.302;2023-07-22T03:56:26;99100;;;12.72;100
44127;BME280;29786;50.798;7.302;2023-07-22T03:57:26;99100;;;12.78;100
44127;BME280;29786;50.798;7.302;2023-07-22T03:58:25;99100;;;12.82;100
44127;BME280;29786;50.798;7.302;2023-07-22T03:59:25;99090;;;12.89;100
44127;BME280;29786;50.798;7.302;2023-07-22T04:00:25;99090;;;12.93;100
44127;BME280;29786;50.798;7.302;2023-07-22T04:01:25;99090;;;12.96;100
44127;BME280;29786;50.798;7.302;2023-07-22T04:02:26;99090;;;12.97;100
44127;BME280;29786;50.798;7.302;2023-07-22T04:03:25;99090;;;12.85;100
44127;BME280;29786;50.798;7.302;2023-07-22T04:04:25;99090;;;12.9;100
44127;BME280;29786;50.798;7.302;2023-07-22T04:05:26;99090;;;12.93;100
44127;BME280;29786;50.798;7.302;2023-07-22T04:06:25;99090;;;12.97;100
44127;BME280;29786;50.798;7.302;2023-07-22T04:07:25;99090;;;12.95;100
44127;BME280;29786;50.798;7.302;2023-07-22T04:08:25;99090;;;12.91;100
44127;BME280;29786;50.798;7.302;2023-07-22T04:09:26;99090;;;12.97;100
44127;BME280;29786;50.798;7.302;2023-07-22T04:10:25;99090;;;12.95;100
44127;BME280;29786;50.798;7.302;2023-07-22T04:11:25;99090;;;12.95;100
44127;BME280;29786;50.798;7.302;2023-07-22T04:12:25;99090;;;12.99;100
44127;BME280;29786;50.798;7.302;2023-07-22T04:13:26;99090;;;12.97;100
44127;BME280;29786;50.798;7.302;2023-07-22T04:14:25;99090;;;12.9;100
44127;BME280;29786;50.798;7.302;2023-07-22T04:15:25;99090;;;12.93;100
44127;BME280;29786;50.798;7.302;2023-07-22T04:16:25;99090;;;12.89;100
44127;BME280;29786;50.798;7.302;2023-07-22T04:17:26;99090;;;12.86;100
44127;BME280;29786;50.798;7.302;2023-07-22T04:18:25;99090;;;12.88;100
44127;BME280;29786;50.798;7.302;2023-07-22T04:19:25;99090;;;12.98;100
44127;BME280;29786;50.798;7.302;2023-07-22T04:20:25;99090;;;12.95;100
44127;BME280;29786;50.798;7.302;2023-07-22T04:21:25;99090;;;12.98;100
44127;BME280;29786;50.798;7.302;2023-07-22T04:22:23;99090;;;12.98;100
44127;BME280;29786;50.798;7.302;2023-07-22T04:23:26;99090;;;12.98;100
44127;BME280;29786;50.798;7.302;2023-07-22T04:24:26;99090;;;12.98;100
44127;BME280;29786;50.798;7.302;2023-07-22T04:25:25;99090;;;13.01;100
44127;BME280;29786;50.798;7.302;2023-07-22T04:26:26;99090;;;13.02;100
44127;BME280;29786;50.798;7.302;2023-07-22T04:27:26;99090;;;13.1;100
44127;BME280;29786;50.798;7.302;2023-07-22T04:28:25;99090;;;13.09;100
44127;BME280;29786;50.798;7.302;2023-07-22T04:29:25;99090;;;13.19;100
44127;BME280;29786;50.798;7.302;2023-07-22T04:30:25;99090;;;13.14;100
44127;BME280;29786;50.798;7.302;2023-07-22T04:31:25;99090;;;13.17;100
44127;BME280;29786;50.798;7.302;2023-07-22T04:32:25;99090;;;13.18;100
44127;BME280;29786;50.798;7.302;2023-07-22T04:33:25;99090;;;13.19;100
44127;BME280;29786;50.798;7.302;2023-07-22T04:34:29;99090;;;13.19;100
44127;BME280;29786;50.798;7.302;2023-07-22T04:35:25;99090;;;13.27;100
44127;BME280;29786;50.798;7.302;2023-07-22T04:36:25;99090;;;13.27;100
44127;BME280;29786;50.798;7.302;2023-07-22T04:37:25;99090;;;13.27;100
44127;BME280;29786;50.798;7.302;2023-07-22T04:38:25;99090;;;13.35;100
44127;BME280;29786;50.798;7.302;2023-07-22T04:39:25;99100;;;13.37;100
44127;BME280;29786;50.798;7.302;2023-07-22T04:40:25;99100;;;13.35;100
44127;BME280;29786;50.798;7.302;2023-07-22T04:41:25;99100;;;13.29;100
44127;BME280;29786;50.798;7.302;2023-07-22T04:42:25;99090;;;13.28;100
44127;BME280;29786;50.798;7.302;2023-07-22T04:43:25;99100;;;13.36;100
44127;BME280;29786;50.798;7.302;2023-07-22T04:44:26;99100;;;13.48;100
44127;BME280;29786;50.798;7.302;2023-07-22T04:45:25;99100;;;13.54;100
44127;BME280;29786;50.798;7.302;2023-07-22T04:46:25;99100;;;13.53;100
44127;BME280;29786;50.798;7.302;2023-07-22T04:47:25;99110;;;13.54;100
44127;BME280;29786;50.798;7.302;2023-07-22T04:48:26;99110;;;13.55;100
44127;BME280;29786;50.798;7.302;2023-07-22T04:49:25;99110;;;13.55;100
44127;BME280;29786;50.798;7.302;2023-07-22T04:50:25;99110;;;13.57;100
44127;BME280;29786;50.798;7.302;2023-07-22T04:51:25;99110;;;13.52;100
44127;BME280;29786;50.798;7.302;2023-07-22T04:52:25;99110;;;13.54;100
44127;BME280;29786;50.798;7.302;2023-07-22T04:53:25;99110;;;13.46;100
44127;BME280;29786;50.798;7.302;2023-07-22T04:54:25;99110;;;13.5;100
44127;BME280;29786;50.798;7.302;2023-07-22T04:55:25;99110;;;13.59;100
44127;BME280;29786;50.798;7.302;2023-07-22T04:56:25;99110;;;13.63;100
44127;BME280;29786;50.798;7.302;2023-07-22T04:57:25;99100;;;13.6;100
44127;BME280;29786;50.798;7.302;2023-07-22T04:58:25;99110;;;13.57;100
44127;BME280;29786;50.798;7.302;2023-07-22T04:59:25;99100;;;13.57;100
44127;BME280;29786;50.798;7.302;2023-07-22T05:00:25;99100;;;13.55;100
44127;BME280;29786;50.798;7.302;2023-07-22T05:01:25;99100;;;13.63;100
44127;BME280;29786;50.798;7.302;2023-07-22T05:02:25;99100;;;13.75;100
44127;BME280;29786;50.798;7.302;2023-07-22T05:03:25;99110;;;13.74;100
44127;BME280;29786;50.798;7.302;2023-07-22T05:04:25;99110;;;13.75;100
44127;BME280;29786;50.798;7.302;2023-07-22T05:05:27;99100;;;13.71;100
44127;BME280;29786;50.798;7.302;2023-07-22T05:06:28;99110;;;13.73;100
44127;BME280;29786;50.798;7.302;2023-07-22T05:07:23;99100;;;13.85;100
44127;BME280;29786;50.798;7.302;2023-07-22T05:08:26;99100;;;13.83;100
44127;BME280;29786;50.798;7.302;2023-07-22T05:09:25;99110;;;13.8;100
44127;BME280;29786;50.798;7.302;2023-07-22T05:10:25;99110;;;13.82;100
44127;BME280;29786;50.798;7.302;2023-07-22T05:11:27;99100;;;13.8;100
44127;BME280;29786;50.798;7.302;2023-07-22T05:12:25;99110;;;13.85;100
44127;BME280;29786;50.798;7.302;2023-07-22T05:13:25;99110;;;13.95;100
44127;BME280;29786;50.798;7.302;2023-07-22T05:14:25;99110;;;14;100
44127;BME280;29786;50.798;7.302;2023-07-22T05:15:25;99110;;;14.12;100
44127;BME280;29786;50.798;7.302;2023-07-22T05:16:26;99110;;;14.15;100
44127;BME280;29786;50.798;7.302;2023-07-22T05:17:26;99110;;;14.08;100
44127;BME280;29786;50.798;7.302;2023-07-22T05:18:25;99100;;;14.01;100
44127;BME280;29786;50.798;7.302;2023-07-22T05:19:25;99110;;;14.1;100
44127;BME280;29786;50.798;7.302;2023-07-22T05:20:25;99110;;;14.1;100
44127;BME280;29786;50.798;7.302;2023-07-22T05:21:25;99110;;;14.14;100
44127;BME280;29786;50.798;7.302;2023-07-22T05:22:25;99100;;;14.17;100
44127;BME280;29786;50.798;7.302;2023-07-22T05:23:25;99100;;;14.2;100
44127;BME280;29786;50.798;7.302;2023-07-22T05:24:25;99100;;;14.27;100
44127;BME280;29786;50.798;7.302;2023-07-22T05:25:25;99100;;;14.24;100
44127;BME280;29786;50.798;7.302;2023-07-22T05:26:26;99100;;;14.33;100
44127;BME280;29786;50.798;7.302;2023-07-22T05:27:26;99100;;;14.34;100
44127;BME280;29786;50.798;7.302;2023-07-22T05:28:26;99110;;;14.3;100
44127;BME280;29786;50.798;7.302;2023-07-22T05:29:25;99100;;;14.34;100
44127;BME280;29786;50.798;7.302;2023-07-22T05:30:25;99100;;;14.32;100
44127;BME280;29786;50.798;7.302;2023-07-22T05:31:24;99110;;;14.5;100
44127;BME280;29786;50.798;7.302;2023-07-22T05:32:25;99100;;;14.55;100
44127;BME280;29786;50.798;7.302;2023-07-22T05:33:25;99100;;;14.55;100
44127;BME280;29786;50.798;7.302;2023-07-22T05:34:25;99110;;;14.65;100
44127;BME280;29786;50.798;7.302;2023-07-22T05:35:25;99100;;;14.71;100
44127;BME280;29786;50.798;7.302;2023-07-22T05:36:26;99100;;;14.71;100
44127;BME280;29786;50.798;7.302;2023-07-22T05:37:25;99110;;;14.71;100
44127;BME280;29786;50.798;7.302;2023-07-22T05:38:25;99100;;;14.69;100
44127;BME280;29786;50.798;7.302;2023-07-22T05:39:25;99100;;;14.72;100
44127;BME280;29786;50.798;7.302;2023-07-22T05:40:26;99110;;;14.8;100
44127;BME280;29786;50.798;7.302;2023-07-22T05:41:25;99100;;;14.79;100
44127;BME280;29786;50.798;7.302;2023-07-22T05:42:26;99100;;;14.81;100